sensor_id;sensor_type;location;lat;lon;timestamp;temperature;humidity
15815;DHT22;8008;50.024;8.172;2022-09-09T03:01:50;16.60;99.90
15815;DHT22;8008;50.024;8.172;2022-09-09T03:04:19;16.70;99.90
15815;DHT22;8008;50.024;8.172;2022-09-09T03:06:48;16.70;99.90
15815;DHT22;8008;50.024;8.172;2022-09-09T03:09:19;16.70;99.90
15815;DHT22;8008;50.024;8.172;2022-09-09T03:11:48;16.80;99.90
15815;DHT22;8008;50.024;8.172;2022-09-09T03:14:18;16.80;99.90
15815;DHT22;8008;50.024;8.172;2022-09-09T03:16:49;16.80;99.90
15815;DHT22;8008;50.024;8.172;2022-09-09T03:19:18;16.70;99.90
15815;DHT22;8008;50.024;8.172;2022-09-09T03:21:47;16.80;99.90
15815;DHT22;8008;50.024;8.172;2022-09-09T03:24:16;16.80;99.90
15815;DHT22;8008;50.024;8.172;2022-09-09T03:26:44;16.80;99.90
15815;DHT22;8008;50.024;8.172;2022-09-09T03:29:15;16.60;99.90
15815;DHT22;8008;50.024;8.172;2022-09-09T03:31:44;16.60;99.90
15815;DHT22;8008;50.024;8.172;2022-09-09T03:34:14;16.60;99.90
15815;DHT22;8008;50.024;8.172;2022-09-09T03:36:42;16.50;99.90
15815;DHT22;8008;50.024;8.172;2022-09-09T03:39:10;16.50;99.90
15815;DHT22;8008;50.024;8.172;2022-09-09T03:41:41;16.60;99.90
15815;DHT22;8008;50.024;8.172;2022-09-09T03:44:12;16.60;99.90
15815;DHT22;8008;50.024;8.172;2022-09-09T03:46:41;16.50;99.90
15815;DHT22;8008;50.024;8.172;2022-09-09T03:49:09;16.50;99.90
15815;DHT22;8008;50.024;8.172;2022-09-09T03:51:39;16.50;99.90
15815;DHT22;8008;50.024;8.172;2022-09-09T03:54:07;16.50;99.90
15815;DHT22;8008;50.024;8.172;2022-09-09T03:56:37;16.50;99.90
15815;DHT22;8008;50.024;8.172;2022-09-09T03:59:05;16.60;99.90
15815;DHT22;8008;50.024;8.172;2022-09-09T04:01:35;16.60;99.90
15815;DHT22;8008;50.024;8.172;2022-09-09T04:04:03;16.70;99.90
15815;DHT22;8008;50.024;8.172;2022-09-09T04:06:31;16.70;99.90
15815;DHT22;8008;50.024;8.172;2022-09-09T04:09:00;16.60;99.90
15815;DHT22;8008;50.024;8.172;2022-09-09T04:11:30;16.50;99.90
15815;DHT22;8008;50.024;8.172;2022-09-09T04:13:59;16.60;99.90
15815;DHT22;8008;50.024;8.172;2022-09-09T04:16:29;16.70;99.90
15815;DHT22;8008;50.024;8.172;2022-09-09T04:18:57;16.60;99.90
15815;DHT22;8008;50.024;8.172;2022-09-09T04:21:25;16.60;99.90
15815;DHT22;8008;50.024;8.172;2022-09-09T04:23:54;16.50;99.90
15815;DHT22;8008;50.024;8.172;2022-09-09T04:26:24;16.60;99.90
15815;DHT22;8008;50.024;8.172;2022-09-09T04:28:52;16.40;99.90
15815;DHT22;8008;50.024;8.172;2022-09-09T04:31:23;16.40;99.90
15815;DHT22;8008;50.024;8.172;2022-09-09T04:33:54;16.40;99.90
15815;DHT22;8008;50.024;8.172;2022-09-09T04:36:22;16.40;99.90
15815;DHT22;8008;50.024;8.172;2022-09-09T04:38:54;16.40;99.90
15815;DHT22;8008;50.024;8.172;2022-09-09T04:41:23;16.30;99.90
15815;DHT22;8008;50.024;8.172;2022-09-09T04:43:53;16.30;99.90
15815;DHT22;8008;50.024;8.172;2022-09-09T04:46:22;16.30;99.90
15815;DHT22;8008;50.024;8.172;2022-09-09T04:48:50;16.40;99.90
15815;DHT22;8008;50.024;8.172;2022-09-09T04:51:19;16.20;99.90
15815;DHT22;8008;50.024;8.172;2022-09-09T04:53:49;16.20;99.90
15815;DHT22;8008;50.024;8.172;2022-09-09T04:56:19;16.10;99.90
15815;DHT22;8008;50.024;8.172;2022-09-09T04:58:54;16.10;99.90
15815;DHT22;8008;50.024;8.172;2022-09-09T05:01:27;15.90;99.90
15815;DHT22;8008;50.024;8.172;2022-09-09T05:04:01;16.00;99.90
15815;DHT22;8008;50.024;8.172;2022-09-09T05:06:31;16.00;99.90
15815;DHT22;8008;50.024;8.172;2022-09-09T05:09:00;15.90;99.90
15815;DHT22;8008;50.024;8.172;2022-09-09T05:11:30;16.00;99.90
15815;DHT22;8008;50.024;8.172;2022-09-09T05:14:22;16.00;99.90
15815;DHT22;8008;50.024;8.172;2022-09-09T05:16:55;16.00;99.90
15815;DHT22;8008;50.024;8.172;2022-09-09T05:19:30;15.90;99.90
15815;DHT22;8008;50.024;8.172;2022-09-09T05:21:58;15.90;99.90
15815;DHT22;8008;50.024;8.172;2022-09-09T05:24:35;15.90;99.90
15815;DHT22;8008;50.024;8.172;2022-09-09T05:27:04;15.90;99.90
15815;DHT22;8008;50.024;8.172;2022-09-09T05:29:34;15.90;99.90
15815;DHT22;8008;50.024;8.172;2022-09-09T05:32:06;15.90;99.90
15815;DHT22;8008;50.024;8.172;2022-09-09T05:34:41;15.80;99.90
15815;DHT22;8008;50.024;8.172;2022-09-09T05:37:09;15.80;99.90
15815;DHT22;8008;50.024;8.172;2022-09-09T05:39:37;15.80;99.90
15815;DHT22;8008;50.024;8.172;2022-09-09T05:42:05;15.70;99.90
15815;DHT22;8008;50.024;8.172;2022-09-09T05:44:34;15.70;99.90
15815;DHT22;8008;50.024;8.172;2022-09-09T05:47:04;15.70;99.90
15815;DHT22;8008;50.024;8.172;2022-09-09T05:49:33;15.80;99.90
15815;DHT22;8008;50.024;8.172;2022-09-09T05:52:04;15.80;99.90
15815;DHT22;8008;50.024;8.172;2022-09-09T05:54:35;15.90;99.90
15815;DHT22;8008;50.024;8.172;2022-09-09T05:57:05;16.00;99.90
15815;DHT22;8008;50.024;8.172;2022-09-09T05:59:36;16.10;99.90
15815;DHT22;8008;50.024;8.172;2022-09-09T06:02:34;16.10;99.90
15815;DHT22;8008;50.024;8.172;2022-09-09T06:05:07;16.20;99.90
15815;DHT22;8008;50.024;8.172;2022-09-09T06:07:36;16.30;99.90
15815;DHT22;8008;50.024;8.172;2022-09-09T06:10:05;16.40;99.90
15815;DHT22;8008;50.024;8.172;2022-09-09T06:12:34;16.40;99.90
15815;DHT22;8008;50.024;8.172;2022-09-09T06:15:04;16.50;99.90
15815;DHT22;8008;50.024;8.172;2022-09-09T06:17:33;16.60;99.90
15815;DHT22;8008;50.024;8.172;2022-09-09T06:20:02;16.60;99.90
15815;DHT22;8008;50.024;8.172;2022-09-09T06:22:32;16.70;99.90
15815;DHT22;8008;50.024;8.172;2022-09-09T06:25:04;16.70;99.90
15815;DHT22;8008;50.024;8.172;2022-09-09T06:27:32;16.80;99.90
15815;DHT22;8008;50.024;8.172;2022-09-09T06:30:06;16.90;99.90
15815;DHT22;8008;50.024;8.172;2022-09-09T06:32:35;16.90;99.90
15815;DHT22;8008;50.024;8.172;2022-09-09T06:35:11;16.90;99.90
15815;DHT22;8008;50.024;8.172;2022-09-09T06:37:44;16.90;99.90
15815;DHT22;8008;50.024;8.172;2022-09-09T06:40:22;17.00;99.90
15815;DHT22;8008;50.024;8.172;2022-09-09T06:42:50;17.00;99.90
15815;DHT22;8008;50.024;8.172;2022-09-09T06:45:24;17.00;99.90
15815;DHT22;8008;50.024;8.172;2022-09-09T06:47:56;17.10;99.90
15815;DHT22;8008;50.024;8.172;2022-09-09T06:50:25;17.10;99.90
15815;DHT22;8008;50.024;8.172;2022-09-09T06:52:56;17.10;99.90
15815;DHT22;8008;50.024;8.172;2022-09-09T06:55:29;17.20;99.90
15815;DHT22;8008;50.024;8.172;2022-09-09T06:58:16;17.20;99.90
15815;DHT22;8008;50.024;8.172;2022-09-09T07:00:46;17.30;99.90
15815;DHT22;8008;50.024;8.172;2022-09-09T07:03:14;17.40;99.90
15815;DHT22;8008;50.024;8.172;2022-09-09T07:05:43;17.50;99.90
15815;DHT22;8008;50.024;8.172;2022-09-09T07:08:18;17.60;99.90
15815;DHT22;8008;50.024;8.172;2022-09-09T07:10:48;17.70;99.90
15815;DHT22;8008;50.024;8.172;2022-09-09T07:13:16;17.70;99.90
15815;DHT22;8008;50.024;8.172;2022-09-09T07:15:43;17.90;99.90
15815;DHT22;8008;50.024;8.172;2022-09-09T07:18:13;18.00;99.90
15815;DHT22;8008;50.024;8.172;2022-09-09T07:20:42;18.00;99.90
15815;DHT22;8008;50.024;8.172;2022-09-09T07:23:10;18.10;99.90
15815;DHT22;8008;50.024;8.172;2022-09-09T07:25:44;18.10;99.90
15815;DHT22;8008;50.024;8.172;2022-09-09T07:28:13;18.20;99.90
15815;DHT22;8008;50.024;8.172;2022-09-09T07:30:41;18.30;99.90
15815;DHT22;8008;50.024;8.172;2022-09-09T07:33:09;18.30;99.90
15815;DHT22;8008;50.024;8.172;2022-09-09T07:35:38;18.30;99.90
15815;DHT22;8008;50.024;8.172;2022-09-09T07:38:07;18.40;99.90
15815;DHT22;8008;50.024;8.172;2022-09-09T07:40:36;18.40;99.90
15815;DHT22;8008;50.024;8.172;2022-09-09T07:43:04;18.40;99.90
15815;DHT22;8008;50.024;8.172;2022-09-09T07:45:33;18.50;99.90
15815;DHT22;8008;50.024;8.172;2022-09-09T07:48:03;18.40;99.90
15815;DHT22;8008;50.024;8.172;2022-09-09T07:50:31;18.30;99.90
15815;DHT22;8008;50.024;8.172;2022-09-09T07:53:00;18.40;99.90
15815;DHT22;8008;50.024;8.172;2022-09-09T07:55:29;18.40;99.90
15815;DHT22;8008;50.024;8.172;2022-09-09T07:57:57;18.40;99.90
15815;DHT22;8008;50.024;8.172;2022-09-09T08:00:25;18.30;99.90
15815;DHT22;8008;50.024;8.172;2022-09-09T08:02:56;18.40;99.90
15815;DHT22;8008;50.024;8.172;2022-09-09T08:05:24;18.40;99.90
15815;DHT22;8008;50.024;8.172;2022-09-09T08:07:53;18.50;99.90
15815;DHT22;8008;50.024;8.172;2022-09-09T08:10:23;18.50;99.90
15815;DHT22;8008;50.024;8.172;2022-09-09T08:12:53;18.50;99.90
15815;DHT22;8008;50.024;8.172;2022-09-09T08:15:42;18.50;99.90
15815;DHT22;8008;50.024;8.172;2022-09-09T08:18:10;18.50;99.90
15815;DHT22;8008;50.024;8.172;2022-09-09T08:20:38;18.50;99.90
15815;DHT22;8008;50.024;8.172;2022-09-09T08:23:06;18.40;99.90
15815;DHT22;8008;50.024;8.172;2022-09-09T08:25:36;18.40;99.90
15815;DHT22;8008;50.024;8.172;2022-09-09T08:28:04;18.40;99.90
15815;DHT22;8008;50.024;8.172;2022-09-09T08:30:32;18.50;99.90
15815;DHT22;8008;50.024;8.172;2022-09-09T08:33:00;18.50;99.90
15815;DHT22;8008;50.024;8.172;2022-09-09T08:35:28;18.70;99.90
15815;DHT22;8008;50.024;8.172;2022-09-09T08:37:59;18.80;99.90
15815;DHT22;8008;50.024;8.172;2022-09-09T08:40:30;18.90;99.90
15815;DHT22;8008;50.024;8.172;2022-09-09T08:43:03;18.90;99.90
15815;DHT22;8008;50.024;8.172;2022-09-09T08:45:35;18.90;99.90
15815;DHT22;8008;50.024;8.172;2022-09-09T08:48:15;18.70;99.90
15815;DHT22;8008;50.024;8.172;2022-09-09T08:50:45;18.70;99.90
15815;DHT22;8008;50.024;8.172;2022-09-09T08:53:23;18.60;99.90
15815;DHT22;8008;50.024;8.172;2022-09-09T08:55:55;18.50;99.90
15815;DHT22;8008;50.024;8.172;2022-09-09T08:58:35;18.60;99.90
15815;DHT22;8008;50.024;8.172;2022-09-09T09:01:23;18.60;99.90
15815;DHT22;8008;50.024;8.172;2022-09-09T09:04:02;18.70;99.90
15815;DHT22;8008;50.024;8.172;2022-09-09T09:06:43;18.70;99.90
15815;DHT22;8008;50.024;8.172;2022-09-09T09:09:17;18.60;99.90
15815;DHT22;8008;50.024;8.172;2022-09-09T09:11:48;18.60;99.90
15815;DHT22;8008;50.024;8.172;2022-09-09T09:14:20;18.60;99.90
15815;DHT22;8008;50.024;8.172;2022-09-09T09:16:54;18.80;99.90
15815;DHT22;8008;50.024;8.172;2022-09-09T09:19:24;18.80;99.90
15815;DHT22;8008;50.024;8.172;2022-09-09T09:22:00;19.00;99.90
15815;DHT22;8008;50.024;8.172;2022-09-09T09:24:39;18.90;99.90
15815;DHT22;8008;50.024;8.172;2022-09-09T09:27:12;18.90;99.90
15815;DHT22;8008;50.024;8.172;2022-09-09T09:29:49;19.00;99.90
15815;DHT22;8008;50.024;8.172;2022-09-09T09:32:39;19.00;99.90
15815;DHT22;8008;50.024;8.172;2022-09-09T09:35:12;19.00;99.90
15815;DHT22;8008;50.024;8.172;2022-09-09T09:37:42;19.20;99.90
15815;DHT22;8008;50.024;8.172;2022-09-09T09:40:34;19.40;99.90
15815;DHT22;8008;50.024;8.172;2022-09-09T09:43:02;19.50;99.90
15815;DHT22;8008;50.024;8.172;2022-09-09T09:45:42;19.50;99.90
15815;DHT22;8008;50.024;8.172;2022-09-09T09:48:27;19.50;99.90
15815;DHT22;8008;50.024;8.172;2022-09-09T09:50:57;19.40;99.90
15815;DHT22;8008;50.024;8.172;2022-09-09T09:53:29;19.40;99.90
15815;DHT22;8008;50.024;8.172;2022-09-09T09:55:59;19.40;99.90
15815;DHT22;8008;50.024;8.172;2022-09-09T09:58:31;19.70;99.90
15815;DHT22;8008;50.024;8.172;2022-09-09T10:01:02;19.90;99.90
15815;DHT22;8008;50.024;8.172;2022-09-09T10:03:32;19.90;99.90
15815;DHT22;8008;50.024;8.172;2022-09-09T10:06:04;19.80;99.90
15815;DHT22;8008;50.024;8.172;2022-09-09T10:08:34;19.90;99.90
15815;DHT22;8008;50.024;8.172;2022-09-09T10:11:30;20.10;99.90
15815;DHT22;8008;50.024;8.172;2022-09-09T10:14:08;20.10;99.90
15815;DHT22;8008;50.024;8.172;2022-09-09T10:16:51;19.90;99.90
15815;DHT22;8008;50.024;8.172;2022-09-09T10:19:29;19.90;99.90
15815;DHT22;8008;50.024;8.172;2022-09-09T10:22:04;20.10;99.90
15815;DHT22;8008;50.024;8.172;2022-09-09T10:25:05;20.50;99.90
15815;DHT22;8008;50.024;8.172;2022-09-09T10:27:42;20.70;99.90
15815;DHT22;8008;50.024;8.172;2022-09-09T10:30:16;20.80;99.90
15815;DHT22;8008;50.024;8.172;2022-09-09T10:32:48;20.90;99.90
15815;DHT22;8008;50.024;8.172;2022-09-09T10:35:25;20.80;99.90
15815;DHT22;8008;50.024;8.172;2022-09-09T10:38:08;20.70;99.90
15815;DHT22;8008;50.024;8.172;2022-09-09T10:40:41;20.80;99.90
15815;DHT22;8008;50.024;8.172;2022-09-09T10:43:21;20.90;99.90
15815;DHT22;8008;50.024;8.172;2022-09-09T10:46:02;21.00;99.90
15815;DHT22;8008;50.024;8.172;2022-09-09T10:48:41;21.10;99.90
15815;DHT22;8008;50.024;8.172;2022-09-09T10:51:23;21.20;99.90
15815;DHT22;8008;50.024;8.172;2022-09-09T10:54:09;21.30;99.90
15815;DHT22;8008;50.024;8.172;2022-09-09T10:56:42;21.50;99.90
15815;DHT22;8008;50.024;8.172;2022-09-09T10:59:16;21.50;99.90
15815;DHT22;8008;50.024;8.172;2022-09-09T11:01:50;21.50;99.90
15815;DHT22;8008;50.024;8.172;2022-09-09T11:04:22;21.50;99.90
15815;DHT22;8008;50.024;8.172;2022-09-09T11:06:54;21.70;99.90
15815;DHT22;8008;50.024;8.172;2022-09-09T11:09:26;21.70;99.90
15815;DHT22;8008;50.024;8.172;2022-09-09T11:11:57;21.80;99.90
15815;DHT22;8008;50.024;8.172;2022-09-09T11:14:30;21.60;99.90
15815;DHT22;8008;50.024;8.172;2022-09-09T11:17:06;21.60;99.90
15815;DHT22;8008;50.024;8.172;2022-09-09T11:19:40;21.50;99.90
15815;DHT22;8008;50.024;8.172;2022-09-09T11:22:17;21.50;99.90
15815;DHT22;8008;50.024;8.172;2022-09-09T11:24:52;21.60;99.90
15815;DHT22;8008;50.024;8.172;2022-09-09T11:27:25;21.50;99.90
15815;DHT22;8008;50.024;8.172;2022-09-09T11:30:16;21.60;99.90
15815;DHT22;8008;50.024;8.172;2022-09-09T11:33:38;21.80;99.90
15815;DHT22;8008;50.024;8.172;2022-09-09T11:36:38;21.70;99.90
15815;DHT22;8008;50.024;8.172;2022-09-09T11:42:13;21.40;99.90
15815;DHT22;8008;50.024;8.172;2022-09-09T11:44:43;21.30;99.90
15815;DHT22;8008;50.024;8.172;2022-09-09T11:47:19;21.20;99.90
15815;DHT22;8008;50.024;8.172;2022-09-09T11:49:48;21.20;99.90
15815;DHT22;8008;50.024;8.172;2022-09-09T11:52:23;21.10;99.90
15815;DHT22;8008;50.024;8.172;2022-09-09T11:54:55;21.00;99.90
15815;DHT22;8008;50.024;8.172;2022-09-09T11:57:26;20.80;99.90
15815;DHT22;8008;50.024;8.172;2022-09-09T11:59:55;20.70;99.90
15815;DHT22;8008;50.024;8.172;2022-09-09T12:02:25;20.70;99.90
15815;DHT22;8008;50.024;8.172;2022-09-09T12:04:59;20.70;99.90
15815;DHT22;8008;50.024;8.172;2022-09-09T12:07:35;20.60;99.90
15815;DHT22;8008;50.024;8.172;2022-09-09T12:10:20;20.50;99.90
15815;DHT22;8008;50.024;8.172;2022-09-09T12:12:49;20.40;99.90
15815;DHT22;8008;50.024;8.172;2022-09-09T12:15:24;20.30;99.90
15815;DHT22;8008;50.024;8.172;2022-09-09T12:17:56;20.30;99.90
15815;DHT22;8008;50.024;8.172;2022-09-09T12:20:33;20.30;99.90
15815;DHT22;8008;50.024;8.172;2022-09-09T12:26:16;20.10;99.90
15815;DHT22;8008;50.024;8.172;2022-09-09T12:28:53;20.00;99.90
15815;DHT22;8008;50.024;8.172;2022-09-09T12:31:26;20.10;99.90
15815;DHT22;8008;50.024;8.172;2022-09-09T12:34:06;20.10;99.90
15815;DHT22;8008;50.024;8.172;2022-09-09T12:36:37;20.10;99.90
15815;DHT22;8008;50.024;8.172;2022-09-09T12:39:18;20.20;99.90
15815;DHT22;8008;50.024;8.172;2022-09-09T12:41:52;20.20;99.90
15815;DHT22;8008;50.024;8.172;2022-09-09T12:44:24;20.20;99.90
15815;DHT22;8008;50.024;8.172;2022-09-09T12:46:55;20.10;99.90
15815;DHT22;8008;50.024;8.172;2022-09-09T12:49:31;20.10;99.90
15815;DHT22;8008;50.024;8.172;2022-09-09T12:52:05;20.20;99.90
15815;DHT22;8008;50.024;8.172;2022-09-09T12:54:36;20.30;99.90
15815;DHT22;8008;50.024;8.172;2022-09-09T12:57:05;20.30;99.90
15815;DHT22;8008;50.024;8.172;2022-09-09T12:59:37;20.50;99.90
15815;DHT22;8008;50.024;8.172;2022-09-09T13:02:18;20.50;99.90
15815;DHT22;8008;50.024;8.172;2022-09-09T13:04:46;20.60;99.90
15815;DHT22;8008;50.024;8.172;2022-09-09T13:07:17;20.80;99.90
15815;DHT22;8008;50.024;8.172;2022-09-09T13:09:47;20.80;99.90
15815;DHT22;8008;50.024;8.172;2022-09-09T13:12:18;21.00;99.90
15815;DHT22;8008;50.024;8.172;2022-09-09T13:14:49;21.20;99.90
15815;DHT22;8008;50.024;8.172;2022-09-09T13:17:21;21.20;99.90
15815;DHT22;8008;50.024;8.172;2022-09-09T13:19:50;21.10;99.90
15815;DHT22;8008;50.024;8.172;2022-09-09T13:22:21;21.20;99.90
15815;DHT22;8008;50.024;8.172;2022-09-09T13:25:01;21.40;99.90
15815;DHT22;8008;50.024;8.172;2022-09-09T13:27:32;21.40;99.90
15815;DHT22;8008;50.024;8.172;2022-09-09T13:30:01;21.40;99.90
15815;DHT22;8008;50.024;8.172;2022-09-09T13:32:29;21.30;99.90
15815;DHT22;8008;50.024;8.172;2022-09-09T13:34:59;21.10;99.90
15815;DHT22;8008;50.024;8.172;2022-09-09T13:37:32;21.10;99.90
15815;DHT22;8008;50.024;8.172;2022-09-09T13:40:05;21.00;99.90
15815;DHT22;8008;50.024;8.172;2022-09-09T13:42:36;20.80;99.90
15815;DHT22;8008;50.024;8.172;2022-09-09T13:45:14;20.70;99.90
15815;DHT22;8008;50.024;8.172;2022-09-09T13:47:46;20.50;99.90
15815;DHT22;8008;50.024;8.172;2022-09-09T13:50:19;20.30;99.90
15815;DHT22;8008;50.024;8.172;2022-09-09T13:52:49;20.20;99.90
15815;DHT22;8008;50.024;8.172;2022-09-09T13:55:20;20.20;99.90
15815;DHT22;8008;50.024;8.172;2022-09-09T13:57:52;20.00;99.90
15815;DHT22;8008;50.024;8.172;2022-09-09T14:00:21;20.00;99.90
15815;DHT22;8008;50.024;8.172;2022-09-09T14:02:51;19.80;99.90
15815;DHT22;8008;50.024;8.172;2022-09-09T14:05:19;19.60;99.90
15815;DHT22;8008;50.024;8.172;2022-09-09T14:07:49;19.00;99.90
15815;DHT22;8008;50.024;8.172;2022-09-09T14:10:20;18.60;99.90
15815;DHT22;8008;50.024;8.172;2022-09-09T14:12:49;18.20;99.90
15815;DHT22;8008;50.024;8.172;2022-09-09T14:15:17;18.10;99.90
15815;DHT22;8008;50.024;8.172;2022-09-09T14:17:46;18.20;99.90
15815;DHT22;8008;50.024;8.172;2022-09-09T14:20:15;18.50;99.90
15815;DHT22;8008;50.024;8.172;2022-09-09T14:22:44;18.80;99.90
15815;DHT22;8008;50.024;8.172;2022-09-09T14:25:12;19.20;99.90
15815;DHT22;8008;50.024;8.172;2022-09-09T14:27:42;19.50;99.90
15815;DHT22;8008;50.024;8.172;2022-09-09T14:30:11;20.00;99.90
15815;DHT22;8008;50.024;8.172;2022-09-09T14:32:39;20.70;99.90
15815;DHT22;8008;50.024;8.172;2022-09-09T14:35:07;21.20;99.90
15815;DHT22;8008;50.024;8.172;2022-09-09T14:37:35;21.40;99.90
15815;DHT22;8008;50.024;8.172;2022-09-09T14:40:06;21.20;99.90
15815;DHT22;8008;50.024;8.172;2022-09-09T14:42:35;20.90;99.90
15815;DHT22;8008;50.024;8.172;2022-09-09T14:45:05;20.50;99.90
15815;DHT22;8008;50.024;8.172;2022-09-09T14:47:33;20.40;99.90
15815;DHT22;8008;50.024;8.172;2022-09-09T14:50:01;20.60;99.90
15815;DHT22;8008;50.024;8.172;2022-09-09T14:52:31;21.10;99.90
15815;DHT22;8008;50.024;8.172;2022-09-09T14:54:59;20.80;99.90
15815;DHT22;8008;50.024;8.172;2022-09-09T14:57:27;20.90;99.90
15815;DHT22;8008;50.024;8.172;2022-09-09T14:59:55;21.00;99.90
15815;DHT22;8008;50.024;8.172;2022-09-09T15:02:24;21.50;99.90
15815;DHT22;8008;50.024;8.172;2022-09-09T15:04:52;22.00;99.90
15815;DHT22;8008;50.024;8.172;2022-09-09T15:07:24;22.50;99.90
15815;DHT22;8008;50.024;8.172;2022-09-09T15:09:52;23.10;99.90
15815;DHT22;8008;50.024;8.172;2022-09-09T15:12:20;24.10;99.90
15815;DHT22;8008;50.024;8.172;2022-09-09T15:14:48;24.70;99.90
15815;DHT22;8008;50.024;8.172;2022-09-09T15:17:17;24.80;99.90
15815;DHT22;8008;50.024;8.172;2022-09-09T15:19:46;24.90;99.90
15815;DHT22;8008;50.024;8.172;2022-09-09T15:22:14;23.70;99.90
15815;DHT22;8008;50.024;8.172;2022-09-09T15:24:42;22.30;99.90
15815;DHT22;8008;50.024;8.172;2022-09-09T15:27:10;21.50;99.90
15815;DHT22;8008;50.024;8.172;2022-09-09T15:29:38;21.30;99.90
15815;DHT22;8008;50.024;8.172;2022-09-09T15:32:06;21.00;99.90
15815;DHT22;8008;50.024;8.172;2022-09-09T15:34:33;20.80;99.90
15815;DHT22;8008;50.024;8.172;2022-09-09T15:37:03;20.50;99.90
15815;DHT22;8008;50.024;8.172;2022-09-09T15:39:31;20.30;99.90
15815;DHT22;8008;50.024;8.172;2022-09-09T15:42:04;20.10;99.90
15815;DHT22;8008;50.024;8.172;2022-09-09T15:44:40;20.00;99.90
15815;DHT22;8008;50.024;8.172;2022-09-09T15:47:11;20.00;99.90
15815;DHT22;8008;50.024;8.172;2022-09-09T15:49:39;19.90;99.90
15815;DHT22;8008;50.024;8.172;2022-09-09T15:52:10;19.70;99.90
15815;DHT22;8008;50.024;8.172;2022-09-09T15:54:38;19.70;99.90
15815;DHT22;8008;50.024;8.172;2022-09-09T15:57:07;19.60;99.90
15815;DHT22;8008;50.024;8.172;2022-09-09T15:59:39;19.60;99.90
15815;DHT22;8008;50.024;8.172;2022-09-09T16:02:06;19.60;99.90
15815;DHT22;8008;50.024;8.172;2022-09-09T16:04:35;19.50;99.90
15815;DHT22;8008;50.024;8.172;2022-09-09T16:07:04;19.60;99.90
15815;DHT22;8008;50.024;8.172;2022-09-09T16:09:34;19.60;99.90
15815;DHT22;8008;50.024;8.172;2022-09-09T16:12:04;19.70;99.90
15815;DHT22;8008;50.024;8.172;2022-09-09T16:14:34;19.60;99.90
15815;DHT22;8008;50.024;8.172;2022-09-09T16:17:03;19.60;99.90
15815;DHT22;8008;50.024;8.172;2022-09-09T16:19:31;19.50;99.90
15815;DHT22;8008;50.024;8.172;2022-09-09T16:22:01;19.50;99.90
15815;DHT22;8008;50.024;8.172;2022-09-09T16:24:29;19.50;99.90
15815;DHT22;8008;50.024;8.172;2022-09-09T16:26:58;19.50;99.90
15815;DHT22;8008;50.024;8.172;2022-09-09T16:29:26;19.40;99.90
15815;DHT22;8008;50.024;8.172;2022-09-09T16:31:54;19.30;99.90
15815;DHT22;8008;50.024;8.172;2022-09-09T16:34:28;19.20;99.90
15815;DHT22;8008;50.024;8.172;2022-09-09T16:36:56;19.10;99.90
15815;DHT22;8008;50.024;8.172;2022-09-09T16:39:24;19.10;99.90
15815;DHT22;8008;50.024;8.172;2022-09-09T16:41:52;19.00;99.90
15815;DHT22;8008;50.024;8.172;2022-09-09T16:44:21;18.90;99.90
15815;DHT22;8008;50.024;8.172;2022-09-09T16:46:49;18.90;99.90
15815;DHT22;8008;50.024;8.172;2022-09-09T16:49:26;18.80;99.90
15815;DHT22;8008;50.024;8.172;2022-09-09T16:51:57;18.70;99.90
15815;DHT22;8008;50.024;8.172;2022-09-09T16:54:25;18.50;99.90
15815;DHT22;8008;50.024;8.172;2022-09-09T16:56:55;18.30;99.90
15815;DHT22;8008;50.024;8.172;2022-09-09T16:59:25;18.10;99.90
15815;DHT22;8008;50.024;8.172;2022-09-09T17:01:53;18.00;99.90
15815;DHT22;8008;50.024;8.172;2022-09-09T17:04:25;17.80;99.90
15815;DHT22;8008;50.024;8.172;2022-09-09T17:06:54;17.80;99.90
15815;DHT22;8008;50.024;8.172;2022-09-09T17:09:23;17.60;99.90
15815;DHT22;8008;50.024;8.172;2022-09-09T17:11:51;17.50;99.90
15815;DHT22;8008;50.024;8.172;2022-09-09T17:14:21;17.40;99.90
15815;DHT22;8008;50.024;8.172;2022-09-09T17:16:51;17.30;99.90
15815;DHT22;8008;50.024;8.172;2022-09-09T17:19:19;17.20;99.90
15815;DHT22;8008;50.024;8.172;2022-09-09T17:21:47;17.10;99.90
15815;DHT22;8008;50.024;8.172;2022-09-09T17:24:35;17.00;99.90
15815;DHT22;8008;50.024;8.172;2022-09-09T17:27:05;16.90;99.90
15815;DHT22;8008;50.024;8.172;2022-09-09T17:29:32;16.80;99.90
15815;DHT22;8008;50.024;8.172;2022-09-09T17:32:04;16.70;99.90
15815;DHT22;8008;50.024;8.172;2022-09-09T17:34:33;16.70;99.90
15815;DHT22;8008;50.024;8.172;2022-09-09T17:37:01;16.70;99.90
15815;DHT22;8008;50.024;8.172;2022-09-09T17:39:30;16.60;99.90
15815;DHT22;8008;50.024;8.172;2022-09-09T17:41:59;16.60;99.90
15815;DHT22;8008;50.024;8.172;2022-09-09T17:44:27;16.60;99.90
15815;DHT22;8008;50.024;8.172;2022-09-09T17:46:55;16.60;99.90
15815;DHT22;8008;50.024;8.172;2022-09-09T17:49:24;16.60;99.90
15815;DHT22;8008;50.024;8.172;2022-09-09T17:51:52;16.70;99.90
15815;DHT22;8008;50.024;8.172;2022-09-09T17:54:20;16.80;99.90
15815;DHT22;8008;50.024;8.172;2022-09-09T17:56:48;16.70;99.90
15815;DHT22;8008;50.024;8.172;2022-09-09T17:59:17;16.70;99.90
15815;DHT22;8008;50.024;8.172;2022-09-09T18:01:47;16.70;99.90
15815;DHT22;8008;50.024;8.172;2022-09-09T18:04:17;16.70;99.90
15815;DHT22;8008;50.024;8.172;2022-09-09T18:06:48;16.70;99.90
15815;DHT22;8008;50.024;8.172;2022-09-09T18:09:18;16.80;99.90
15815;DHT22;8008;50.024;8.172;2022-09-09T18:11:50;16.80;99.90
15815;DHT22;8008;50.024;8.172;2022-09-09T18:14:20;16.70;99.90
15815;DHT22;8008;50.024;8.172;2022-09-09T18:16:50;16.70;99.90
15815;DHT22;8008;50.024;8.172;2022-09-09T18:19:20;16.70;99.90
15815;DHT22;8008;50.024;8.172;2022-09-09T18:21:50;16.60;99.90
15815;DHT22;8008;50.024;8.172;2022-09-09T18:24:20;16.50;99.90
15815;DHT22;8008;50.024;8.172;2022-09-09T18:26:49;16.50;99.90
15815;DHT22;8008;50.024;8.172;2022-09-09T18:29:19;16.20;99.90
15815;DHT22;8008;50.024;8.172;2022-09-09T18:31:47;16.00;99.90
15815;DHT22;8008;50.024;8.172;2022-09-09T18:34:17;15.70;99.90
15815;DHT22;8008;50.024;8.172;2022-09-09T18:36:47;15.50;99.90
15815;DHT22;8008;50.024;8.172;2022-09-09T18:39:17;15.40;99.90
15815;DHT22;8008;50.024;8.172;2022-09-09T18:41:46;15.30;99.90
15815;DHT22;8008;50.024;8.172;2022-09-09T18:44:16;15.30;99.90
15815;DHT22;8008;50.024;8.172;2022-09-09T18:46:47;15.30;99.90
15815;DHT22;8008;50.024;8.172;2022-09-09T18:49:15;15.30;99.90
15815;DHT22;8008;50.024;8.172;2022-09-09T18:51:44;15.30;99.90
15815;DHT22;8008;50.024;8.172;2022-09-09T18:54:14;15.20;99.90
15815;DHT22;8008;50.024;8.172;2022-09-09T18:56:44;15.10;99.90
15815;DHT22;8008;50.024;8.172;2022-09-09T18:59:14;15.10;99.90
15815;DHT22;8008;50.024;8.172;2022-09-09T19:01:45;15.00;99.90
15815;DHT22;8008;50.024;8.172;2022-09-09T19:04:14;15.00;99.90
15815;DHT22;8008;50.024;8.172;2022-09-09T19:06:44;14.90;99.90
15815;DHT22;8008;50.024;8.172;2022-09-09T19:09:14;15.00;99.90
15815;DHT22;8008;50.024;8.172;2022-09-09T19:11:45;15.00;99.90
15815;DHT22;8008;50.024;8.172;2022-09-09T19:14:15;15.00;99.90
15815;DHT22;8008;50.024;8.172;2022-09-09T19:16:44;15.00;99.90
15815;DHT22;8008;50.024;8.172;2022-09-09T19:19:16;15.00;99.90